Time;durP1;ratioP1;P1;durP2;ratioP2;P2;SDS_P1;SDS_P2;PMS_P1;PMS_P2;Temp;Humidity;BMP_temperature;BMP_pressure;BME280_temperature;BME280_humidity;BME280_pressure;Samples;Min_cycle;Max_cycle;Signal;HPM_P1;HPM_P2
2024/01/31 00:00:27;;;;;;;7.03;2.45;;;;;;;6.15;100.00;101411.97;5073891;28;20109;-72
2024/01/31 00:02:54;;;;;;;8.50;2.90;;;;;;;6.22;100.00;101411.88;5061552;28;20098;-72
2024/01/31 00:05:21;;;;;;;10.55;2.92;;;;;;;6.03;100.00;101399.91;5064992;28;20052;-72
2024/01/31 00:07:48;;;;;;;9.50;2.17;;;;;;;6.24;100.00;101415.34;5068025;28;20045;-72
2024/01/31 00:10:16;;;;;;;9.88;3.22;;;;;;;6.06;100.00;101415.50;5068868;28;20053;-72
2024/01/31 00:12:43;;;;;;;9.65;3.35;;;;;;;6.12;100.00;101420.63;5070415;28;20060;-72
2024/01/31 00:15:09;;;;;;;10.02;2.58;;;;;;;6.25;100.00;101400.59;5077228;28;20274;-72
2024/01/31 00:17:36;;;;;;;7.30;2.40;;;;;;;6.36;100.00;101390.09;5068334;28;20056;-71
2024/01/31 00:20:03;;;;;;;9.93;2.90;;;;;;;6.27;100.00;101375.44;5070067;28;20385;-71
2024/01/31 00:22:30;;;;;;;9.63;2.60;;;;;;;6.05;100.00;101377.38;5065997;28;20059;-71
2024/01/31 00:24:57;;;;;;;7.13;2.67;;;;;;;6.14;100.00;101379.03;5069217;28;20044;-71
2024/01/31 00:27:23;;;;;;;11.23;2.80;;;;;;;6.27;100.00;101397.09;5065672;28;20052;-72
2024/01/31 00:29:50;;;;;;;8.32;2.67;;;;;;;6.17;100.00;101392.00;5072596;28;20051;-72
2024/01/31 00:32:17;;;;;;;8.65;2.47;;;;;;;6.26;100.00;101394.53;5052341;28;20139;-71
2024/01/31 00:34:43;;;;;;;9.63;2.72;;;;;;;5.96;100.00;101386.09;5068361;28;20056;-71
2024/01/31 00:37:10;;;;;;;9.80;3.08;;;;;;;5.78;100.00;101350.69;5069707;28;20105;-71
2024/01/31 00:39:38;;;;;;;7.00;2.40;;;;;;;5.89;100.00;101342.81;5078514;28;20060;-71
2024/01/31 00:42:04;;;;;;;7.65;2.60;;;;;;;5.89;100.00;101320.28;5053811;28;20061;-71
2024/01/31 00:44:31;;;;;;;9.57;2.63;;;;;;;5.85;100.00;101313.38;5072145;28;20051;-71
2024/01/31 00:46:58;;;;;;;13.43;3.03;;;;;;;5.88;100.00;101302.13;5069093;28;21079;-71
2024/01/31 00:49:24;;;;;;;15.10;2.70;;;;;;;5.98;100.00;101313.31;5068603;28;20133;-72
2024/01/31 00:51:52;;;;;;;10.88;2.70;;;;;;;6.05;100.00;101312.38;5068284;28;20466;-71
2024/01/31 00:54:20;;;;;;;8.95;2.85;;;;;;;6.10;100.00;101323.59;5061064;28;20639;-72
2024/01/31 00:56:46;;;;;;;7.85;2.95;;;;;;;6.26;100.00;101338.16;5076144;28;20041;-71
2024/01/31 00:59:13;;;;;;;14.35;3.08;;;;;;;6.19;100.00;101327.84;5070215;28;20064;-71
2024/01/31 01:01:40;;;;;;;8.80;2.88;;;;;;;6.23;100.00;101342.53;5070116;28;20044;-72
2024/01/31 01:04:10;;;;;;;7.13;2.20;;;;;;;6.22;100.00;101312.22;5067647;28;20070;-71
2024/01/31 01:06:40;;;;;;;9.15;2.78;;;;;;;5.92;100.00;101289.97;5080653;28;20048;-71
2024/01/31 01:09:07;;;;;;;17.83;2.97;;;;;;;6.10;100.00;101286.34;5077388;28;20052;-71
2024/01/31 01:11:33;;;;;;;11.45;3.10;;;;;;;6.27;100.00;101276.63;5068076;28;20677;-71
2024/01/31 01:14:00;;;;;;;9.95;2.70;;;;;;;6.18;100.00;101268.91;5067605;28;20368;-71
2024/01/31 01:16:27;;;;;;;9.32;2.38;;;;;;;6.36;100.00;101279.13;5065549;28;20049;-71
2024/01/31 01:18:54;;;;;;;6.55;2.30;;;;;;;6.32;100.00;101284.34;5066643;28;20044;-71
2024/01/31 01:21:21;;;;;;;7.47;2.38;;;;;;;6.26;100.00;101273.13;5068172;28;20511;-70
2024/01/31 01:23:47;;;;;;;11.95;3.03;;;;;;;6.16;100.00;101262.84;5072798;28;20052;-70
2024/01/31 01:26:17;;;;;;;9.57;2.33;;;;;;;6.32;100.00;101274.84;5076144;28;20555;-71
2024/01/31 01:28:44;;;;;;;12.85;2.95;;;;;;;6.23;100.00;101272.31;5056300;28;20137;-71
2024/01/31 01:31:11;;;;;;;9.00;2.67;;;;;;;6.17;100.00;101249.84;5066989;28;20084;-71
2024/01/31 01:33:37;;;;;;;9.27;2.83;;;;;;;6.21;100.00;101238.53;5066478;28;20407;-71
2024/01/31 01:36:05;;;;;;;10.40;3.03;;;;;;;6.14;100.00;101236.88;5067906;28;20477;-71
2024/01/31 01:38:32;;;;;;;8.98;2.65;;;;;;;6.38;100.00;101227.94;5063991;28;20601;-70
2024/01/31 01:40:58;;;;;;;10.60;2.60;;;;;;;6.40;100.00;101213.16;5063132;28;20587;-71
2024/01/31 01:43:25;;;;;;;8.57;2.75;;;;;;;6.45;100.00;101236.53;5058570;28;20064;-72
2024/01/31 01:46:07;;;;;;;10.73;3.00;;;;;;;6.64;100.00;101226.75;5060239;28;20076;-71
2024/01/31 01:48:34;;;;;;;7.53;2.40;;;;;;;6.70;100.00;101215.41;5064595;28;20060;-71
2024/01/31 01:51:02;;;;;;;8.75;2.47;;;;;;;6.42;100.00;101207.94;5060970;28;20084;-71
2024/01/31 01:53:31;;;;;;;9.43;2.67;;;;;;;6.32;100.00;101225.44;5071940;28;20048;-71
2024/01/31 01:55:57;;;;;;;18.27;3.17;;;;;;;6.32;100.00;101215.03;5075852;28;20120;-71
2024/01/31 01:58:24;;;;;;;8.13;2.58;;;;;;;6.46;100.00;101220.03;5071788;28;20541;-71
2024/01/31 02:00:52;;;;;;;14.52;3.30;;;;;;;6.58;100.00;101216.41;5057767;28;20383;-71
2024/01/31 02:03:19;;;;;;;10.93;3.65;;;;;;;6.52;100.00;101206.94;5060118;28;20080;-71
2024/01/31 02:05:46;;;;;;;12.13;3.20;;;;;;;6.43;100.00;101187.13;5068357;28;20049;-71
2024/01/31 02:08:13;;;;;;;9.02;2.70;;;;;;;6.40;100.00;101184.56;5074213;28;20055;-71
2024/01/31 02:10:40;;;;;;;7.57;2.58;;;;;;;6.76;100.00;101169.28;5070458;28;20053;-71
2024/01/31 02:13:07;;;;;;;10.18;2.53;;;;;;;6.65;100.00;101168.59;5075053;28;20059;-71
2024/01/31 02:15:33;;;;;;;8.93;2.70;;;;;;;6.43;100.00;101158.50;5050950;28;20048;-71
2024/01/31 02:18:00;;;;;;;8.35;2.53;;;;;;;6.44;100.00;101139.41;5063239;28;20516;-71
2024/01/31 02:20:28;;;;;;;9.27;2.80;;;;;;;6.46;100.00;101144.59;5070228;28;20440;-71
2024/01/31 02:22:55;;;;;;;12.45;2.53;;;;;;;6.50;100.00;101148.00;5074624;28;20044;-72
2024/01/31 02:25:22;;;;;;;10.82;2.65;;;;;;;6.49;100.00;101141.09;5070986;28;20055;-71
2024/01/31 02:27:48;;;;;;;9.48;2.95;;;;;;;6.58;100.00;101136.59;5076905;28;20127;-71
2024/01/31 02:30:16;;;;;;;8.73;2.63;;;;;;;6.55;100.00;101134.06;5073184;28;20054;-71
2024/01/31 02:32:43;;;;;;;10.13;2.92;;;;;;;6.61;100.00;101112.31;5070059;28;20139;-71
2024/01/31 02:35:09;;;;;;;12.65;2.80;;;;;;;6.57;100.00;101093.28;5071838;28;20059;-71
2024/01/31 02:37:41;;;;;;;10.27;2.90;;;;;;;6.54;100.00;101082.91;5071147;28;20398;-71
2024/01/31 02:40:08;;;;;;;10.20;2.97;;;;;;;6.30;100.00;101078.06;5071009;28;20048;-70
2024/01/31 02:42:35;;;;;;;9.65;2.60;;;;;;;6.33;100.00;101081.47;5056425;28;20057;-71
2024/01/31 02:45:01;;;;;;;12.23;2.20;;;;;;;6.57;100.00;101087.19;5075413;28;20469;-71
2024/01/31 02:47:28;;;;;;;9.40;2.40;;;;;;;6.51;100.00;101080.34;5076269;28;20372;-71
2024/01/31 02:49:55;;;;;;;11.52;2.45;;;;;;;6.66;100.00;101081.88;5070665;28;20393;-71
2024/01/31 02:52:21;;;;;;;11.18;2.53;;;;;;;6.83;100.00;101082.47;5072125;28;20398;-72
2024/01/31 02:54:51;;;;;;;10.05;2.78;;;;;;;6.59;100.00;101077.66;5067663;28;20070;-71
2024/01/31 02:57:18;;;;;;;8.20;2.17;;;;;;;7.01;100.00;101078.69;5071800;28;20479;-71
2024/01/31 02:59:45;;;;;;;6.88;2.20;;;;;;;7.17;100.00;101084.47;5072157;28;20527;-71
2024/01/31 03:02:14;;;;;;;7.20;2.00;;;;;;;7.18;100.00;101077.50;5070835;28;20131;-71
2024/01/31 03:04:41;;;;;;;6.40;2.08;;;;;;;6.97;100.00;101092.63;5058560;28;20052;-71
2024/01/31 03:07:08;;;;;;;6.95;2.30;;;;;;;6.82;100.00;101069.47;5069498;28;20047;-71
2024/01/31 03:09:35;;;;;;;10.55;2.25;;;;;;;6.74;100.00;101051.34;5072009;28;20080;-72
2024/01/31 03:12:04;;;;;;;9.00;2.35;;;;;;;6.86;100.00;101037.28;5068048;28;20498;-71
2024/01/31 03:14:34;;;;;;;10.73;2.60;;;;;;;6.84;100.00;101047.72;5072040;28;20494;-71
2024/01/31 03:17:01;;;;;;;9.63;2.40;;;;;;;6.59;100.00;101036.88;5070181;28;20048;-71
2024/01/31 03:19:29;;;;;;;7.97;2.28;;;;;;;6.93;100.00;101038.91;5077037;28;20044;-71
2024/01/31 03:21:56;;;;;;;6.65;2.30;;;;;;;6.76;100.00;101027.91;5069987;28;20087;-71
2024/01/31 03:24:22;;;;;;;9.30;2.60;;;;;;;6.93;100.00;101019.81;5060059;28;20049;-71
2024/01/31 03:26:49;;;;;;;8.38;2.65;;;;;;;6.93;100.00;101015.47;5070024;28;20048;-71
2024/01/31 03:29:16;;;;;;;9.25;2.65;;;;;;;6.80;100.00;101001.81;5078075;28;20059;-71
2024/01/31 03:31:43;;;;;;;8.77;2.47;;;;;;;6.96;100.00;100996.34;5083560;28;20486;-71
2024/01/31 03:34:10;;;;;;;10.73;2.40;;;;;;;7.03;100.00;100988.38;5080879;28;20090;-71
2024/01/31 03:36:37;;;;;;;5.72;1.77;;;;;;;7.17;100.00;100977.72;5057146;28;20486;-71
2024/01/31 03:39:03;;;;;;;12.52;2.63;;;;;;;6.89;100.00;100966.97;5067337;28;20059;-71
2024/01/31 03:41:30;;;;;;;6.55;2.38;;;;;;;7.07;100.00;100967.50;5069920;28;20049;-71
2024/01/31 03:43:57;;;;;;;8.60;2.30;;;;;;;7.05;100.00;100951.91;5077569;28;20051;-71
2024/01/31 03:46:24;;;;;;;10.45;2.17;;;;;;;7.11;100.00;100933.53;5058538;28;20049;-71
2024/01/31 03:48:51;;;;;;;7.63;1.73;;;;;;;7.01;100.00;100918.97;5079786;28;20056;-71
2024/01/31 03:51:22;;;;;;;5.13;2.08;;;;;;;7.05;100.00;100920.66;5067105;28;20056;-71
2024/01/31 03:53:49;;;;;;;6.82;2.22;;;;;;;7.06;100.00;100918.91;5066404;28;20060;-71
2024/01/31 03:56:17;;;;;;;8.00;1.83;;;;;;;6.92;100.00;100901.81;5056520;28;20067;-71
2024/01/31 03:58:44;;;;;;;8.32;2.05;;;;;;;6.90;100.00;100874.09;5074919;28;20048;-71
2024/01/31 04:01:14;;;;;;;7.85;2.13;;;;;;;6.90;100.00;100894.94;5069532;28;20139;-71
2024/01/31 04:03:43;;;;;;;6.80;1.63;;;;;;;6.90;100.00;100876.72;5069094;28;20459;-71
2024/01/31 04:06:10;;;;;;;9.05;1.98;;;;;;;7.09;100.00;100880.66;5068593;28;20043;-71
2024/01/31 04:08:37;;;;;;;11.00;2.17;;;;;;;7.18;100.00;100857.00;5068680;28;20048;-71
2024/01/31 04:11:04;;;;;;;7.28;2.10;;;;;;;7.07;100.00;100864.19;5068120;28;20055;-71
2024/01/31 04:13:31;;;;;;;7.43;2.25;;;;;;;6.92;100.00;100849.75;5068378;28;20046;-71
2024/01/31 04:15:58;;;;;;;10.85;2.00;;;;;;;6.78;100.00;100829.22;5071377;28;20051;-72
2024/01/31 04:18:25;;;;;;;6.25;1.70;;;;;;;6.76;100.00;100827.53;5080391;28;20049;-71
2024/01/31 04:20:51;;;;;;;9.18;2.10;;;;;;;7.04;100.00;100815.63;5067713;28;20071;-71
2024/01/31 04:23:18;;;;;;;9.25;2.10;;;;;;;6.90;100.00;100807.28;5068583;28;20135;-71
2024/01/31 04:25:45;;;;;;;6.47;1.77;;;;;;;6.96;100.00;100806.31;5068379;28;20425;-71
2024/01/31 04:28:13;;;;;;;6.60;1.60;;;;;;;6.99;100.00;100806.22;5074186;28;20076;-72
2024/01/31 04:30:40;;;;;;;7.07;1.80;;;;;;;6.82;100.00;100793.59;5066195;28;20053;-72
2024/01/31 04:33:07;;;;;;;11.20;3.13;;;;;;;6.82;100.00;100781.41;5064701;28;20040;-71
2024/01/31 04:35:34;;;;;;;5.00;1.67;;;;;;;6.74;100.00;100774.66;5057329;28;20128;-71
2024/01/31 04:38:01;;;;;;;7.60;1.73;;;;;;;6.94;100.00;100771.63;5056584;28;20463;-72
2024/01/31 04:40:28;;;;;;;7.85;1.80;;;;;;;6.76;100.00;100741.66;5057608;28;20056;-71
2024/01/31 04:42:54;;;;;;;10.35;2.00;;;;;;;6.93;100.00;100769.94;5069219;28;20049;-71
2024/01/31 04:45:21;;;;;;;3.17;1.30;;;;;;;7.12;100.00;100771.22;5058906;28;20048;-71
2024/01/31 04:47:48;;;;;;;6.82;1.60;;;;;;;6.87;100.00;100773.53;5079639;28;20413;-72
2024/01/31 04:50:14;;;;;;;5.70;1.52;;;;;;;7.08;100.00;100755.69;5065163;28;20052;-71
2024/01/31 04:52:41;;;;;;;3.88;1.50;;;;;;;7.12;100.00;100760.81;5069013;28;20064;-72
2024/01/31 04:55:08;;;;;;;3.03;1.30;;;;;;;7.31;100.00;100742.13;5068128;28;20451;-72
2024/01/31 04:57:35;;;;;;;6.93;1.58;;;;;;;7.23;100.00;100724.94;5057954;28;20049;-71
2024/01/31 05:00:04;;;;;;;5.88;1.80;;;;;;;7.09;100.00;100728.78;5072787;28;20402;-71
2024/01/31 05:02:31;;;;;;;6.63;2.40;;;;;;;7.18;100.00;100698.16;5074106;28;20131;-71
2024/01/31 05:04:59;;;;;;;6.28;1.73;;;;;;;7.12;100.00;100698.31;5064790;28;20059;-72
2024/01/31 05:07:26;;;;;;;3.88;1.50;;;;;;;7.14;100.00;100674.84;5063881;28;20044;-71
2024/01/31 05:09:53;;;;;;;4.82;1.52;;;;;;;7.19;100.00;100699.88;5067102;28;20048;-71
2024/01/31 05:12:20;;;;;;;4.22;1.77;;;;;;;6.92;100.00;100705.72;5059742;28;20075;-71
2024/01/31 05:14:46;;;;;;;6.78;1.90;;;;;;;7.17;100.00;100726.84;5047495;28;20132;-71
2024/01/31 05:17:15;;;;;;;6.85;1.70;;;;;;;6.82;100.00;100726.75;5071030;28;20109;-71
2024/01/31 05:19:42;;;;;;;7.78;2.30;;;;;;;6.88;100.00;100723.16;5066485;28;20045;-71
2024/01/31 05:22:09;;;;;;;5.20;1.60;;;;;;;6.83;100.00;100746.72;5059180;28;20065;-71
2024/01/31 05:24:36;;;;;;;7.07;1.70;;;;;;;6.84;100.00;100743.19;5060098;28;20099;-71
2024/01/31 05:27:04;;;;;;;7.93;1.80;;;;;;;6.78;100.00;100725.13;5076286;28;20105;-71
2024/01/31 05:29:30;;;;;;;7.38;1.90;;;;;;;6.73;100.00;100742.59;5072270;28;20055;-72
2024/01/31 05:31:57;;;;;;;6.43;1.73;;;;;;;6.81;100.00;100714.63;5081842;28;20053;-72
2024/01/31 05:34:24;;;;;;;7.85;1.90;;;;;;;6.98;100.00;100744.66;5058310;28;20509;-73
2024/01/31 05:36:51;;;;;;;4.85;1.40;;;;;;;7.02;100.00;100728.06;5069759;28;20137;-71
2024/01/31 05:39:17;;;;;;;7.35;1.75;;;;;;;7.06;100.00;100741.88;5070455;28;20048;-72
2024/01/31 05:41:44;;;;;;;6.07;1.88;;;;;;;6.82;100.00;100742.38;5080494;28;20051;-72
2024/01/31 05:44:11;;;;;;;7.50;1.73;;;;;;;6.65;100.00;100740.13;5075920;28;20498;-72
2024/01/31 05:46:38;;;;;;;5.28;1.83;;;;;;;6.65;100.00;100727.13;5075367;28;20059;-72
2024/01/31 05:49:05;;;;;;;11.10;2.15;;;;;;;6.50;100.00;100714.47;5075714;28;20051;-71
2024/01/31 05:51:32;;;;;;;6.20;2.05;;;;;;;6.50;100.00;100711.84;5077822;28;20052;-71
2024/01/31 05:53:59;;;;;;;4.20;1.58;;;;;;;6.60;100.00;100704.69;5073129;28;20052;-72
2024/01/31 05:56:25;;;;;;;4.15;1.50;;;;;;;6.80;100.00;100715.53;5071735;28;20037;-71
2024/01/31 05:58:52;;;;;;;5.05;1.73;;;;;;;6.62;100.00;100698.59;5077763;28;20336;-72
2024/01/31 06:01:19;;;;;;;6.22;1.40;;;;;;;7.06;100.00;100695.84;5073497;28;20055;-70
2024/01/31 06:03:45;;;;;;;8.05;1.88;;;;;;;7.04;100.00;100674.22;5072547;28;20486;-71
2024/01/31 06:06:12;;;;;;;5.30;1.58;;;;;;;6.73;100.00;100668.84;5072145;28;20475;-71
2024/01/31 06:08:39;;;;;;;5.30;1.80;;;;;;;6.90;100.00;100653.72;5065430;28;20144;-71
2024/01/31 06:11:08;;;;;;;5.97;1.85;;;;;;;6.65;100.00;100633.47;5069875;28;20789;-71
2024/01/31 06:13:36;;;;;;;5.97;1.40;;;;;;;6.92;100.00;100646.72;5071451;28;20052;-71
2024/01/31 06:16:03;;;;;;;6.85;1.88;;;;;;;6.55;100.00;100611.16;5072432;28;20080;-70
2024/01/31 06:18:34;;;;;;;3.60;1.83;;;;;;;6.63;100.00;100610.97;5082388;28;20044;-71
2024/01/31 06:21:02;;;;;;;5.05;1.77;;;;;;;6.70;100.00;100603.91;5073004;28;20090;-71
2024/01/31 06:23:30;;;;;;;6.30;1.88;;;;;;;6.65;100.00;100597.03;5070938;28;20058;-72
2024/01/31 06:26:00;;;;;;;3.63;1.55;;;;;;;6.75;100.00;100596.84;5072036;28;20160;-71
2024/01/31 06:28:27;;;;;;;3.97;1.80;;;;;;;6.50;100.00;100575.72;5068352;28;20051;-71
2024/01/31 06:31:03;;;;;;;7.25;1.80;;;;;;;6.75;100.00;100584.69;5067227;28;20073;-72
2024/01/31 06:33:32;;;;;;;4.72;1.50;;;;;;;6.70;100.00;100567.47;5064110;28;20064;-71
2024/01/31 06:35:59;;;;;;;3.38;1.40;;;;;;;6.62;100.00;100559.81;5067741;28;20045;-72
2024/01/31 06:38:25;;;;;;;6.28;1.73;;;;;;;6.73;100.00;100549.16;5070650;28;20048;-72
2024/01/31 06:40:58;;;;;;;7.82;1.70;;;;;;;6.72;100.00;100535.31;5066016;28;20053;-72
2024/01/31 06:43:24;;;;;;;6.25;1.58;;;;;;;6.74;100.00;100545.66;5062807;28;20135;-72
2024/01/31 06:45:53;;;;;;;3.55;1.40;;;;;;;6.46;100.00;100531.59;5067393;28;20052;-72
2024/01/31 06:48:20;;;;;;;6.90;1.75;;;;;;;6.44;100.00;100525.56;5074255;28;20048;-71
2024/01/31 06:50:47;;;;;;;3.50;1.42;;;;;;;6.67;100.00;100512.91;5056026;28;20057;-72
2024/01/31 06:53:14;;;;;;;6.85;1.88;;;;;;;6.53;100.00;100503.66;5073359;28;20061;-71
2024/01/31 06:55:41;;;;;;;7.90;1.70;;;;;;;6.58;100.00;100475.81;5067519;28;20052;-72
2024/01/31 06:58:07;;;;;;;4.88;1.65;;;;;;;6.68;100.00;100445.22;5071923;28;20135;-71
2024/01/31 07:00:34;;;;;;;4.65;1.80;;;;;;;6.55;100.00;100443.81;5058905;28;20059;-72
2024/01/31 07:03:01;;;;;;;8.45;1.88;;;;;;;6.54;100.00;100406.53;5068612;28;20136;-72
2024/01/31 07:05:27;;;;;;;5.88;1.95;;;;;;;6.65;100.00;100419.28;5061467;28;20049;-72
2024/01/31 07:07:54;;;;;;;4.20;1.60;;;;;;;6.92;100.00;100394.25;5066505;28;20043;-72
2024/01/31 07:10:21;;;;;;;9.65;1.90;;;;;;;6.69;100.00;100391.41;5063896;28;20048;-72
2024/01/31 07:12:47;;;;;;;4.40;1.65;;;;;;;6.70;100.00;100383.59;5054954;28;20087;-73
2024/01/31 07:15:16;;;;;;;6.15;1.85;;;;;;;6.70;100.00;100375.78;5063393;28;20059;-73
2024/01/31 07:17:44;;;;;;;5.70;1.45;;;;;;;6.75;100.00;100373.91;5069061;28;20047;-72
2024/01/31 07:20:12;;;;;;;5.30;1.83;;;;;;;6.53;100.00;100371.00;5065439;28;20135;-73
2024/01/31 07:22:38;;;;;;;6.43;2.00;;;;;;;6.81;100.00;100365.06;5068908;28;20048;-73
2024/01/31 07:25:10;;;;;;;6.60;2.05;;;;;;;6.64;100.00;100361.19;5058070;28;20052;-73
2024/01/31 07:27:40;;;;;;;6.55;1.88;;;;;;;6.52;100.00;100329.47;5072168;28;20102;-73
2024/01/31 07:30:10;;;;;;;10.30;2.00;;;;;;;6.57;100.00;100341.44;5073531;28;20445;-73
2024/01/31 07:32:37;;;;;;;6.35;1.63;;;;;;;6.60;100.00;100314.47;5068055;28;20080;-73
2024/01/31 07:35:04;;;;;;;5.38;1.70;;;;;;;6.55;100.00;100304.22;5068170;28;20052;-73
2024/01/31 07:37:31;;;;;;;8.45;2.10;;;;;;;6.75;100.00;100285.44;5071744;28;20041;-73
2024/01/31 07:39:58;;;;;;;6.43;2.33;;;;;;;6.65;100.00;100264.03;5067356;28;20441;-73
2024/01/31 07:42:26;;;;;;;5.43;1.80;;;;;;;6.45;100.00;100250.75;5061057;28;20513;-73
2024/01/31 07:44:53;;;;;;;7.65;1.77;;;;;;;6.61;100.00;100226.00;5060578;28;20136;-73
2024/01/31 07:47:20;;;;;;;7.00;2.00;;;;;;;6.73;100.00;100183.16;5071893;28;20063;-73
2024/01/31 07:49:46;;;;;;;10.50;2.10;;;;;;;6.51;100.00;100143.94;5055929;28;20045;-72
2024/01/31 07:52:13;;;;;;;7.28;2.55;;;;;;;6.62;100.00;100139.25;5069370;28;20048;-72
2024/01/31 07:54:40;;;;;;;9.50;2.33;;;;;;;6.52;100.00;100111.00;5059220;28;20093;-72
2024/01/31 07:57:07;;;;;;;6.90;1.90;;;;;;;6.60;100.00;100155.81;5059914;28;20504;-71
2024/01/31 07:59:35;;;;;;;7.93;2.15;;;;;;;6.65;100.00;100182.53;5069087;28;20056;-72
2024/01/31 08:02:02;;;;;;;5.72;1.83;;;;;;;6.46;100.00;100162.28;5053503;28;20045;-72
2024/01/31 08:04:29;;;;;;;5.47;1.88;;;;;;;6.72;100.00;100198.81;5068092;28;20053;-71
2024/01/31 08:06:56;;;;;;;6.47;1.95;;;;;;;6.74;100.00;100191.81;5065876;28;20492;-72
2024/01/31 08:09:23;;;;;;;7.00;2.30;;;;;;;6.83;100.00;100192.41;5061619;28;20048;-72
2024/01/31 08:11:50;;;;;;;10.60;2.80;;;;;;;6.89;100.00;100211.28;5064787;28;20166;-71
2024/01/31 08:14:16;;;;;;;7.68;2.00;;;;;;;7.00;100.00;100217.88;5061518;28;20131;-72
2024/01/31 08:16:44;;;;;;;7.63;3.08;;;;;;;7.37;100.00;100214.09;5065977;28;20048;-72
2024/01/31 08:29:41;;;;;;;6.57;1.90;;;;;;;7.17;100.00;100117.56;5065343;28;20377;-72
2024/01/31 08:32:07;;;;;;;6.95;1.83;;;;;;;7.06;100.00;100120.50;5064679;28;20487;-72
2024/01/31 08:34:34;;;;;;;12.43;3.35;;;;;;;7.12;100.00;100120.31;5067097;28;20044;-72
2024/01/31 08:37:01;;;;;;;6.70;2.33;;;;;;;7.06;100.00;100136.13;5066922;28;20057;-72
2024/01/31 08:39:29;;;;;;;7.38;1.70;;;;;;;7.16;100.00;100123.69;5066048;28;20048;-72
2024/01/31 08:41:56;;;;;;;9.23;1.98;;;;;;;7.10;100.00;100123.88;5065339;28;20168;-72
2024/01/31 08:44:23;;;;;;;9.57;2.05;;;;;;;7.18;100.00;100116.66;5050553;28;20060;-72
2024/01/31 08:46:51;;;;;;;7.22;1.80;;;;;;;7.53;100.00;100114.63;5056327;28;20544;-72
2024/01/31 08:49:37;;;;;;;6.47;2.13;;;;;;;7.44;100.00;100123.59;5064831;28;20045;-72
2024/01/31 08:52:05;;;;;;;8.05;1.80;;;;;;;7.27;100.00;100113.75;5063536;28;20048;-72
2024/01/31 08:54:32;;;;;;;8.23;2.30;;;;;;;7.51;100.00;100125.09;5066054;28;20092;-72
2024/01/31 08:56:58;;;;;;;8.05;2.13;;;;;;;7.39;100.00;100128.94;5065665;28;20485;-72
2024/01/31 08:59:25;;;;;;;6.28;2.00;;;;;;;7.41;100.00;100116.72;5064159;28;20441;-72
2024/01/31 09:01:52;;;;;;;7.38;1.65;;;;;;;7.59;100.00;100104.81;5049107;28;20051;-72
2024/01/31 09:04:18;;;;;;;7.68;2.08;;;;;;;7.67;100.00;100107.16;5059354;28;20513;-72
2024/01/31 09:06:49;;;;;;;8.88;2.88;;;;;;;7.46;100.00;100089.69;5052371;28;20091;-72
2024/01/31 09:09:16;;;;;;;12.20;2.08;;;;;;;7.37;100.00;100083.88;5065772;28;20044;-72
2024/01/31 09:11:42;;;;;;;13.43;2.45;;;;;;;7.49;100.00;100073.94;5061534;28;20388;-72
2024/01/31 09:14:09;;;;;;;8.93;1.95;;;;;;;7.62;100.00;100079.56;5046238;28;20506;-72
2024/01/31 09:16:36;;;;;;;5.07;1.65;;;;;;;7.57;100.00;100064.09;5063101;28;20053;-72
2024/01/31 09:19:03;;;;;;;7.18;1.90;;;;;;;7.78;100.00;100047.69;5055030;28;20049;-72
2024/01/31 09:21:30;;;;;;;8.30;2.13;;;;;;;7.65;100.00;100023.00;5064825;28;20080;-72
2024/01/31 09:23:57;;;;;;;10.95;2.55;;;;;;;7.61;100.00;100031.81;5065919;28;20047;-72
2024/01/31 09:26:24;;;;;;;8.77;2.35;;;;;;;7.69;100.00;100014.16;5066060;28;20049;-72
2024/01/31 09:28:50;;;;;;;11.02;2.38;;;;;;;7.91;100.00;99992.47;5060177;28;20037;-72
2024/01/31 09:31:25;;;;;;;8.23;2.03;;;;;;;7.64;100.00;99974.38;5049176;28;20061;-72
2024/01/31 09:33:53;;;;;;;8.88;1.80;;;;;;;7.79;100.00;99980.75;5052327;28;20457;-72
2024/01/31 09:36:21;;;;;;;7.78;1.98;;;;;;;7.52;100.00;99939.22;5052809;28;20454;-72
2024/01/31 09:38:48;;;;;;;10.77;2.45;;;;;;;7.89;100.00;99939.56;5039293;28;20045;-72
2024/01/31 09:41:16;;;;;;;12.88;3.63;;;;;;;7.80;100.00;99940.78;5052439;28;20552;-72
2024/01/31 09:43:46;;;;;;;7.47;2.00;;;;;;;7.92;100.00;99916.00;5052740;28;20056;-72
2024/01/31 09:46:14;;;;;;;10.85;2.40;;;;;;;7.77;100.00;99889.63;5052119;28;20056;-72
2024/01/31 09:48:42;;;;;;;7.75;1.98;;;;;;;7.92;100.00;99877.72;5052047;28;20040;-72
2024/01/31 09:51:09;;;;;;;7.60;2.20;;;;;;;7.74;100.00;99849.81;5045870;28;20053;-72
2024/01/31 09:53:36;;;;;;;8.40;2.45;;;;;;;7.79;100.00;99850.47;5043433;28;20052;-72
2024/01/31 09:56:06;;;;;;;11.02;2.53;;;;;;;7.77;100.00;99839.25;5052362;28;20465;-72
2024/01/31 09:58:33;;;;;;;12.13;2.10;;;;;;;7.86;100.00;99815.44;5051686;28;20044;-72
2024/01/31 10:01:03;;;;;;;12.60;2.38;;;;;;;7.76;100.00;99819.34;5051606;28;20052;-72
2024/01/31 10:03:42;;;;;;;9.57;2.30;;;;;;;7.68;100.00;99813.56;5043354;28;20081;-72
2024/01/31 10:06:09;;;;;;;9.45;2.08;;;;;;;8.03;100.00;99814.72;5046699;28;20358;-72
2024/01/31 10:08:39;;;;;;;11.13;2.78;;;;;;;7.71;100.00;99788.25;5038575;28;20064;-72
2024/01/31 10:11:06;;;;;;;10.85;2.15;;;;;;;7.47;100.00;99795.31;5051773;28;20099;-72
2024/01/31 10:13:33;;;;;;;11.15;2.60;;;;;;;7.52;100.00;99766.44;5037974;28;20494;-72
2024/01/31 10:16:00;;;;;;;11.98;2.30;;;;;;;7.85;100.00;99745.97;5052046;28;20056;-72
2024/01/31 10:18:28;;;;;;;9.43;1.98;;;;;;;7.67;100.00;99759.78;5050561;28;20118;-72
2024/01/31 10:20:59;;;;;;;10.68;2.28;;;;;;;7.80;100.00;99780.03;5051406;28;20106;-72
2024/01/31 10:23:26;;;;;;;11.48;2.35;;;;;;;8.03;100.00;99749.56;5034432;28;20085;-73
2024/01/31 10:25:52;;;;;;;9.48;2.15;;;;;;;8.11;100.00;99752.69;5031625;28;20049;-72
2024/01/31 10:28:20;;;;;;;9.60;2.35;;;;;;;7.84;100.00;99740.81;5046842;28;20072;-72
2024/01/31 10:30:48;;;;;;;10.18;2.40;;;;;;;8.07;100.00;99732.03;5050916;28;20482;-72
2024/01/31 10:33:15;;;;;;;8.57;1.95;;;;;;;8.17;100.00;99738.53;5052060;28;20135;-72
2024/01/31 10:35:45;;;;;;;9.50;2.00;;;;;;;8.36;100.00;99751.63;5049629;28;20352;-72
2024/01/31 10:38:32;;;;;;;6.78;1.80;;;;;;;8.27;100.00;99770.25;5043702;28;20110;-72
2024/01/31 10:41:01;;;;;;;12.80;2.22;;;;;;;8.36;100.00;99785.53;5042833;28;20045;-72
2024/01/31 10:43:29;;;;;;;13.85;2.67;;;;;;;7.91;100.00;99773.53;5031538;28;20057;-72
2024/01/31 10:45:55;;;;;;;7.28;1.70;;;;;;;8.21;100.00;99734.88;5045894;28;20116;-72
2024/01/31 10:48:22;;;;;;;7.40;1.73;;;;;;;8.24;100.00;99737.34;5039194;28;20049;-72
2024/01/31 10:50:52;;;;;;;5.80;1.70;;;;;;;8.42;100.00;99733.09;5039136;28;20511;-72
2024/01/31 10:53:22;;;;;;;11.25;2.03;;;;;;;8.34;100.00;99729.97;5039035;28;20048;-72
2024/01/31 10:55:51;;;;;;;7.97;1.85;;;;;;;8.41;100.00;99730.53;5051186;28;20091;-72
2024/01/31 10:58:21;;;;;;;8.48;1.83;;;;;;;8.55;100.00;99747.31;5050527;28;20463;-72
2024/01/31 11:00:48;;;;;;;8.55;2.10;;;;;;;8.49;100.00;99721.47;5050528;28;20095;-72
2024/01/31 11:03:16;;;;;;;10.68;2.25;;;;;;;8.44;100.00;99702.56;5050708;28;20057;-72
2024/01/31 11:05:43;;;;;;;10.13;2.03;;;;;;;8.47;100.00;99701.63;5036241;28;20064;-72
2024/01/31 11:08:20;;;;;;;7.22;2.00;;;;;;;8.48;100.00;99693.72;5030964;28;20052;-72
2024/01/31 11:10:48;;;;;;;9.43;2.10;;;;;;;8.35;100.00;99716.00;5049173;28;20053;-71
2024/01/31 11:13:15;;;;;;;9.85;1.95;;;;;;;8.53;100.00;99686.53;5039013;28;20052;-72
2024/01/31 11:15:42;;;;;;;9.02;1.63;;;;;;;8.66;100.00;99665.94;5041438;28;20746;-72
2024/01/31 11:18:10;;;;;;;6.63;1.40;;;;;;;8.57;100.00;99658.53;5044026;28;20057;-72
2024/01/31 11:20:39;;;;;;;8.25;1.70;;;;;;;8.79;100.00;99660.13;5047163;28;20063;-72
2024/01/31 11:23:06;;;;;;;6.70;1.80;;;;;;;8.80;100.00;99651.38;5050964;28;20059;-72
2024/01/31 11:25:36;;;;;;;9.38;2.15;;;;;;;8.70;100.00;99630.09;5050573;28;20057;-72
2024/01/31 11:28:06;;;;;;;10.02;1.83;;;;;;;8.64;100.00;99615.59;5049085;28;20041;-72
2024/01/31 11:30:33;;;;;;;9.80;1.55;;;;;;;8.68;100.00;99606.69;5043123;28;20079;-72
2024/01/31 11:33:03;;;;;;;3.95;1.27;;;;;;;8.84;100.00;99600.72;5050916;28;20049;-72
2024/01/31 11:35:31;;;;;;;6.55;1.80;;;;;;;9.07;100.00;99595.22;5050625;28;20056;-72